Time;durP1;ratioP1;P1;durP2;ratioP2;P2;SDS_P1;SDS_P2;PMS_P1;PMS_P2;Temp;Humidity;BMP_temperature;BMP_pressure;BME280_temperature;BME280_humidity;BME280_pressure;Samples;Min_cycle;Max_cycle;Signal;HPM_P1;HPM_P2
2023/06/10 00:02:16;;;;;;;8.30;3.78;;;;;;;;;;6282207;22;20014;-90
2023/06/10 00:05:01;;;;;;;8.85;4.57;;;;;;;;;;6283046;22;20021;-88
2023/06/10 00:07:46;;;;;;;8.82;4.60;;;;;;;;;;6305751;22;20341;-88
2023/06/10 00:10:30;;;;;;;8.93;4.63;;;;;;;;;;6303253;22;20068;-87
2023/06/10 00:13:16;;;;;;;7.47;3.95;;;;;;;;;;6282563;22;20018;-90
2023/06/10 00:16:01;;;;;;;7.90;4.32;;;;;;;;;;6304493;22;20106;-89
2023/06/10 00:18:46;;;;;;;7.88;4.63;;;;;;;;;;6305800;22;20452;-89
2023/06/10 00:21:39;;;;;;;8.95;3.95;;;;;;;;;;6303637;22;20061;-88
2023/06/10 00:24:24;;;;;;;11.35;4.70;;;;;;;;;;6303621;22;20057;-89
2023/06/10 00:27:09;;;;;;;11.48;4.82;;;;;;;;;;6305010;22;20038;-89
2023/06/10 00:29:54;;;;;;;8.75;4.55;;;;;;;;;;6305301;22;20042;-88
2023/06/10 00:32:39;;;;;;;8.98;4.30;;;;;;;;;;6303731;22;20426;-89
2023/06/10 00:35:23;;;;;;;9.63;4.80;;;;;;;;;;6282108;22;20045;-89
2023/06/10 00:38:08;;;;;;;8.73;4.25;;;;;;;;;;6304027;22;20043;-89
2023/06/10 00:40:52;;;;;;;7.53;4.05;;;;;;;;;;6305557;22;20022;-91
2023/06/10 00:43:37;;;;;;;7.78;4.15;;;;;;;;;;6303687;22;20439;-88
2023/06/10 00:46:22;;;;;;;8.10;3.90;;;;;;;;;;6304839;22;20014;-89
2023/06/10 00:49:07;;;;;;;12.05;4.50;;;;;;;;;;6282599;22;20022;-89
2023/06/10 00:51:53;;;;;;;11.70;5.00;;;;;;;;;;6286716;22;20021;-88
2023/06/10 00:54:38;;;;;;;9.55;4.45;;;;;;;;;;6308813;22;20018;-89
2023/06/10 00:57:23;;;;;;;7.65;4.35;;;;;;;;;;6285281;22;20030;-89
2023/06/10 01:00:08;;;;;;;8.90;4.80;;;;;;;;;;6308885;22;20064;-90
2023/06/10 01:02:53;;;;;;;14.63;4.30;;;;;;;;;;6286141;22;20094;-89
2023/06/10 01:05:38;;;;;;;9.73;5.00;;;;;;;;;;6308120;22;20037;-89
2023/06/10 01:08:30;;;;;;;9.70;4.18;;;;;;;;;;6307177;22;20030;-90
2023/06/10 01:11:19;;;;;;;6.35;4.35;;;;;;;;;;6307742;22;20017;-90
2023/06/10 01:14:07;;;;;;;8.13;4.53;;;;;;;;;;6308926;22;20388;-89
2023/06/10 01:16:55;;;;;;;9.30;3.95;;;;;;;;;;6308807;22;20057;-89
2023/06/10 01:19:40;;;;;;;8.50;4.90;;;;;;;;;;6307042;22;20102;-88
2023/06/10 01:22:32;;;;;;;9.07;4.55;;;;;;;;;;6307181;22;20018;-91
2023/06/10 01:25:18;;;;;;;9.88;4.13;;;;;;;;;;6309120;22;20077;-89
2023/06/10 01:28:06;;;;;;;6.88;3.75;;;;;;;;;;6286291;22;20049;-90
2023/06/10 01:30:51;;;;;;;8.65;4.32;;;;;;;;;;6307339;22;20018;-92
2023/06/10 01:33:37;;;;;;;7.95;4.10;;;;;;;;;;6306905;22;20073;-89
2023/06/10 01:36:22;;;;;;;7.45;4.30;;;;;;;;;;6308612;22;20443;-90
2023/06/10 01:39:08;;;;;;;12.13;5.22;;;;;;;;;;6308526;22;20018;-90
2023/06/10 01:41:53;;;;;;;9.15;4.40;;;;;;;;;;6307499;22;20014;-89
2023/06/10 01:44:39;;;;;;;8.60;4.78;;;;;;;;;;6308077;22;20040;-89
2023/06/10 01:47:23;;;;;;;8.90;4.65;;;;;;;;;;6307477;22;20011;-89
2023/06/10 01:50:08;;;;;;;7.22;4.18;;;;;;;;;;6308656;22;20015;-89
2023/06/10 01:52:53;;;;;;;9.68;4.57;;;;;;;;;;6308278;22;20014;-89
2023/06/10 01:55:37;;;;;;;12.90;4.13;;;;;;;;;;6306754;22;20018;-89
2023/06/10 01:58:22;;;;;;;10.20;4.65;;;;;;;;;;6285448;22;20030;-90
2023/06/10 02:01:07;;;;;;;8.25;4.22;;;;;;;;;;6306757;22;20014;-89
2023/06/10 02:03:51;;;;;;;8.88;4.18;;;;;;;;;;6306260;22;20014;-89
2023/06/10 02:06:37;;;;;;;6.85;4.00;;;;;;;;;;6283221;22;20086;-89
2023/06/10 02:09:22;;;;;;;7.00;4.20;;;;;;;;;;6307041;22;20023;-89
2023/06/10 02:12:07;;;;;;;10.38;4.65;;;;;;;;;;6305536;22;20072;-89
2023/06/10 02:14:52;;;;;;;10.85;5.03;;;;;;;;;;6283291;22;20017;-88
2023/06/10 02:17:37;;;;;;;15.10;4.75;;;;;;;;;;6304565;22;20449;-88
2023/06/10 02:20:22;;;;;;;7.30;4.20;;;;;;;;;;6283775;22;20444;-88
2023/06/10 02:23:06;;;;;;;8.88;4.13;;;;;;;;;;6305398;22;20015;-88
2023/06/10 02:25:51;;;;;;;7.72;4.53;;;;;;;;;;6304714;22;20022;-89
2023/06/10 02:28:35;;;;;;;13.82;4.93;;;;;;;;;;6304740;22;20018;-89
2023/06/10 02:31:20;;;;;;;6.38;3.92;;;;;;;;;;6305492;22;20049;-90
2023/06/10 02:34:04;;;;;;;10.45;5.18;;;;;;;;;;6306653;22;20499;-87
2023/06/10 02:36:51;;;;;;;11.50;4.78;;;;;;;;;;6306079;22;20766;-89
2023/06/10 02:39:35;;;;;;;9.40;4.82;;;;;;;;;;6305700;22;20034;-89
2023/06/10 02:42:20;;;;;;;11.82;4.80;;;;;;;;;;6304299;22;20022;-88
2023/06/10 02:45:04;;;;;;;11.40;5.25;;;;;;;;;;6283621;22;20743;-88
2023/06/10 02:47:49;;;;;;;8.10;4.35;;;;;;;;;;6305820;22;20024;-87
2023/06/10 02:50:34;;;;;;;7.65;3.55;;;;;;;;;;6306427;22;20538;-90
2023/06/10 02:53:18;;;;;;;9.80;4.03;;;;;;;;;;6306454;22;20090;-88
2023/06/10 02:56:03;;;;;;;7.75;4.25;;;;;;;;;;6283158;22;20017;-88
2023/06/10 02:58:48;;;;;;;8.10;4.18;;;;;;;;;;6304403;22;20045;-88
2023/06/10 03:01:34;;;;;;;9.13;4.43;;;;;;;;;;6306376;22;20018;-88
2023/06/10 03:04:20;;;;;;;9.00;4.60;;;;;;;;;;6306461;22;20061;-88
2023/06/10 03:07:07;;;;;;;9.15;4.38;;;;;;;;;;6305144;22;20342;-88
2023/06/10 03:09:51;;;;;;;9.68;4.20;;;;;;;;;;6282938;22;20465;-89
2023/06/10 03:12:36;;;;;;;13.90;4.45;;;;;;;;;;6283206;22;20854;-90
2023/06/10 03:15:21;;;;;;;11.65;4.88;;;;;;;;;;6282989;22;20461;-89
2023/06/10 03:18:06;;;;;;;10.43;4.53;;;;;;;;;;6304701;22;20026;-88
2023/06/10 03:20:51;;;;;;;10.27;4.20;;;;;;;;;;6304563;22;20441;-88
2023/06/10 03:23:36;;;;;;;9.55;4.28;;;;;;;;;;6283067;22;20338;-88
2023/06/10 03:26:21;;;;;;;7.88;4.50;;;;;;;;;;6283138;22;20391;-87
2023/06/10 03:29:06;;;;;;;16.63;4.88;;;;;;;;;;6306063;22;20014;-88
2023/06/10 03:31:50;;;;;;;9.63;4.63;;;;;;;;;;6304128;22;20060;-88
2023/06/10 03:34:35;;;;;;;13.18;4.30;;;;;;;;;;6306079;22;20038;-88
2023/06/10 03:37:19;;;;;;;12.10;4.93;;;;;;;;;;6304736;22;20056;-88
2023/06/10 03:40:04;;;;;;;9.35;4.63;;;;;;;;;;6282240;22;20057;-88
2023/06/10 03:42:48;;;;;;;11.27;4.82;;;;;;;;;;6305332;22;20384;-88
2023/06/10 03:45:33;;;;;;;9.25;4.78;;;;;;;;;;6282730;22;20062;-88
2023/06/10 03:48:17;;;;;;;8.90;4.55;;;;;;;;;;6304634;22;20022;-89
2023/06/10 03:51:02;;;;;;;9.10;4.88;;;;;;;;;;6305092;22;20065;-88
2023/06/10 03:53:47;;;;;;;11.93;4.72;;;;;;;;;;6304027;22;20056;-88
2023/06/10 03:56:32;;;;;;;7.38;4.25;;;;;;;;;;6305947;22;20057;-89
2023/06/10 03:59:17;;;;;;;13.60;5.07;;;;;;;;;;6305898;22;20452;-88
2023/06/10 04:02:02;;;;;;;9.18;5.38;;;;;;;;;;6282472;22;20123;-89
2023/06/10 04:04:46;;;;;;;12.15;5.10;;;;;;;;;;6303936;22;20019;-90
2023/06/10 04:07:31;;;;;;;12.93;6.03;;;;;;;;;;6304765;22;20014;-88
2023/06/10 04:10:16;;;;;;;13.82;4.90;;;;;;;;;;6282844;22;20018;-88
2023/06/10 04:13:00;;;;;;;11.85;5.25;;;;;;;;;;6305001;22;20010;-89
2023/06/10 04:15:45;;;;;;;9.40;4.53;;;;;;;;;;6304910;22;20088;-91
2023/06/10 04:18:30;;;;;;;9.25;4.53;;;;;;;;;;6305830;22;20072;-88
2023/06/10 04:21:15;;;;;;;12.40;5.30;;;;;;;;;;6304227;22;20069;-89
2023/06/10 04:23:59;;;;;;;11.40;4.68;;;;;;;;;;6281970;22;20491;-89
2023/06/10 04:26:44;;;;;;;9.50;4.05;;;;;;;;;;6304115;22;20342;-89
2023/06/10 04:29:30;;;;;;;11.65;5.22;;;;;;;;;;6304503;22;20065;-89
2023/06/10 04:38:35;;;;;;;;;;;;;;;;;;;;;
2023/06/10 04:41:27;;;;;;;12.18;5.05;;;;;;;;;;6312292;22;20065;-93
2023/06/10 04:44:52;;;;;;;8.73;4.85;;;;;;;;;;6289960;22;20384;-93
2023/06/10 04:47:38;;;;;;;;;;;;;;;;;;6317301;22;20022;-93
2023/06/10 04:50:49;;;;;;;8.20;4.75;;;;;;;;;;6314024;22;20246;-92
2023/06/10 04:53:37;;;;;;;12.13;5.63;;;;;;;;;;6294837;22;20014;-93
2023/06/10 04:56:51;;;;;;;11.70;5.47;;;;;;;;;;6291021;22;20724;-93
2023/06/10 05:06:19;;;;;;;13.32;5.22;;;;;;;;;;6312322;22;20068;-93
2023/06/10 05:09:06;;;;;;;11.57;5.13;;;;;;;;;;6296004;22;20076;-94
2023/06/10 05:12:35;;;;;;;15.82;5.55;;;;;;;;;;6311651;22;20033;-95
2023/06/10 05:15:30;;;;;;;13.65;5.88;;;;;;;;;;6292598;22;20021;-94
2023/06/10 05:18:21;;;;;;;12.40;5.50;;;;;;;;;;6290963;22;20018;-94
2023/06/10 05:21:27;;;;;;;14.95;5.07;;;;;;;;;;6290777;22;20014;-92
2023/06/10 05:24:43;;;;;;;11.57;5.10;;;;;;;;;;6318369;22;20454;-92
2023/06/10 05:27:40;;;;;;;14.07;6.60;;;;;;;;;;6295516;22;20080;-94
2023/06/10 05:30:37;;;;;;;;;;;;;;;;;;;;;
2023/06/10 05:33:38;;;;;;;;;;;;;;;;;;;;;
2023/06/10 05:36:40;;;;;;;;;;;;;;;;;;;;;
2023/06/10 05:43:16;;;;;;;14.73;7.35;;;;;;;;;;6327356;22;20026;-95
2023/06/10 05:46:33;;;;;;;11.07;5.10;;;;;;;;;;6325858;22;20022;-94
2023/06/10 05:49:22;;;;;;;16.67;6.25;;;;;;;;;;6317537;22;20019;-94
2023/06/10 05:52:28;;;;;;;8.95;5.38;;;;;;;;;;6322250;22;20038;-94
2023/06/10 05:55:19;;;;;;;9.32;4.43;;;;;;;;;;6322141;22;20026;-94
2023/06/10 05:58:14;;;;;;;11.68;4.70;;;;;;;;;;6324340;22;20033;-94
2023/06/10 06:00:59;;;;;;;13.75;5.93;;;;;;;;;;6321378;22;20084;-94
2023/06/10 06:04:06;;;;;;;9.05;4.57;;;;;;;;;;6314084;22;20010;-95
2023/06/10 06:06:55;;;;;;;11.73;4.68;;;;;;;;;;6320336;22;20435;-95
2023/06/10 06:09:49;;;;;;;11.73;6.00;;;;;;;;;;6345773;22;20022;-94
2023/06/10 06:12:50;;;;;;;12.82;4.85;;;;;;;;;;6344724;22;20022;-94
2023/06/10 06:15:40;;;;;;;9.95;5.20;;;;;;;;;;6322454;22;20014;-95
2023/06/10 06:18:30;;;;;;;11.75;4.90;;;;;;;;;;6341336;22;20030;-93
2023/06/10 06:21:39;;;;;;;7.88;4.45;;;;;;;;;;6319979;22;20014;-95
2023/06/10 06:24:29;;;;;;;10.27;4.93;;;;;;;;;;6322626;22;20013;-95
2023/06/10 06:29:57;;;;;;;12.05;6.45;;;;;;;;;;6320534;22;20020;-92
2023/06/10 06:33:00;;;;;;;10.38;5.18;;;;;;;;;;6314741;22;20061;-93
2023/06/10 06:35:48;;;;;;;10.77;5.53;;;;;;;;;;6322246;22;20098;-95
2023/06/10 06:38:58;;;;;;;;;;;;;;;;;;;;;
2023/06/10 06:42:06;;;;;;;13.95;6.20;;;;;;;;;;6320897;22;20037;-94
2023/06/10 06:44:59;;;;;;;9.40;4.90;;;;;;;;;;6314201;22;20062;-94
2023/06/10 06:47:47;;;;;;;13.20;5.53;;;;;;;;;;6316360;22;20337;-93
2023/06/10 06:50:48;;;;;;;;;;;;;;;;;;;;;
2023/06/10 06:53:36;;;;;;;12.13;5.90;;;;;;;;;;6325411;22;20082;-94
2023/06/10 06:56:24;;;;;;;7.65;4.53;;;;;;;;;;6324890;22;20014;-94
2023/06/10 06:59:19;;;;;;;15.75;5.78;;;;;;;;;;6321482;22;20053;-93
2023/06/10 07:02:04;;;;;;;12.00;4.68;;;;;;;;;;6306289;22;20018;-91
2023/06/10 07:04:54;;;;;;;9.52;4.72;;;;;;;;;;6306494;22;20455;-92
2023/06/10 07:07:39;;;;;;;8.95;4.95;;;;;;;;;;6305338;22;20510;-92
2023/06/10 07:10:24;;;;;;;12.63;4.88;;;;;;;;;;6304723;22;20379;-92
2023/06/10 07:13:09;;;;;;;8.77;4.63;;;;;;;;;;6306822;22;20065;-93
2023/06/10 07:16:05;;;;;;;9.68;4.53;;;;;;;;;;6318921;22;20045;-94
2023/06/10 07:18:50;;;;;;;11.23;4.60;;;;;;;;;;6293228;22;20026;-92
2023/06/10 07:21:38;;;;;;;9.57;5.47;;;;;;;;;;6307240;22;20018;-94
2023/06/10 07:24:23;;;;;;;7.53;3.95;;;;;;;;;;6310119;22;20384;-93
2023/06/10 07:27:29;;;;;;;9.18;4.20;;;;;;;;;;6319093;22;20067;-93
2023/06/10 07:30:29;;;;;;;10.55;4.38;;;;;;;;;;6256947;23;20023;-95
2023/06/10 07:36:31;;;;;;;8.93;4.88;;;;;;;;;;6287103;22;20456;-95
2023/06/10 07:39:16;;;;;;;8.68;4.15;;;;;;;;;;6282013;22;20038;-94
2023/06/10 07:42:06;;;;;;;11.85;3.60;;;;;;;;;;6277301;22;20059;-92
2023/06/10 07:44:53;;;;;;;9.63;4.28;;;;;;;;;;6283391;22;20018;-94
2023/06/10 07:47:41;;;;;;;10.35;4.00;;;;;;;;;;6280977;22;20088;-94
2023/06/10 07:50:26;;;;;;;7.38;3.92;;;;;;;;;;6290391;22;20019;-92
2023/06/10 07:53:10;;;;;;;9.75;4.47;;;;;;;;;;6278207;22;20057;-91
2023/06/10 07:56:05;;;;;;;7.97;3.72;;;;;;;;;;6281679;22;20015;-95
2023/06/10 07:58:52;;;;;;;9.80;3.95;;;;;;;;;;6276111;22;20039;-93
2023/06/10 08:01:43;;;;;;;10.13;4.03;;;;;;;;;;6279838;22;20002;-94
2023/06/10 08:04:28;;;;;;;8.88;3.80;;;;;;;;;;6264656;22;20022;-93
2023/06/10 08:07:20;;;;;;;8.93;4.00;;;;;;;;;;6288559;22;20015;-95
2023/06/10 08:10:05;;;;;;;5.78;3.90;;;;;;;;;;6260812;22;20065;-93
2023/06/10 08:12:56;;;;;;;9.98;3.92;;;;;;;;;;6286871;22;20011;-94
2023/06/10 08:15:41;;;;;;;12.82;4.35;;;;;;;;;;6284425;22;20015;-94
2023/06/10 08:18:28;;;;;;;10.45;4.10;;;;;;;;;;6282957;22;20050;-95
2023/06/10 08:21:39;;;;;;;7.47;3.72;;;;;;;;;;6281701;22;20325;-95
2023/06/10 08:24:31;;;;;;;7.35;4.35;;;;;;;;;;6278614;22;20063;-94
2023/06/10 08:27:15;;;;;;;11.75;4.30;;;;;;;;;;6261674;22;20018;-94
2023/06/10 08:30:00;;;;;;;10.70;4.40;;;;;;;;;;6313520;22;20030;-94
2023/06/10 08:32:45;;;;;;;8.85;4.20;;;;;;;;;;6308462;22;20015;-92
2023/06/10 08:35:32;;;;;;;7.35;4.10;;;;;;;;;;6309306;22;20010;-95
2023/06/10 08:38:17;;;;;;;8.38;3.83;;;;;;;;;;6305713;22;20072;-94
2023/06/10 08:41:08;;;;;;;7.00;4.05;;;;;;;;;;6307125;22;20009;-93
2023/06/10 08:43:53;;;;;;;9.90;4.10;;;;;;;;;;6305600;22;20010;-92
2023/06/10 08:46:47;;;;;;;5.38;3.28;;;;;;;;;;6320867;22;20025;-94
2023/06/10 08:49:45;;;;;;;7.32;3.70;;;;;;;;;;6310650;22;20054;-91
2023/06/10 08:52:35;;;;;;;7.35;3.63;;;;;;;;;;6306901;22;20764;-94
2023/06/10 08:55:39;;;;;;;7.50;4.82;;;;;;;;;;6305742;22;20113;-94
2023/06/10 08:58:41;;;;;;;7.28;3.65;;;;;;;;;;6304416;22;20022;-94
2023/06/10 09:01:26;;;;;;;6.13;3.30;;;;;;;;;;6305313;22;20019;-92
2023/06/10 09:04:14;;;;;;;7.38;3.33;;;;;;;;;;6307143;22;20060;-95
2023/06/10 09:06:59;;;;;;;7.63;3.70;;;;;;;;;;6305419;22;20014;-94
2023/06/10 09:09:57;;;;;;;9.73;4.18;;;;;;;;;;6307667;22;20060;-93
2023/06/10 09:12:44;;;;;;;10.57;4.25;;;;;;;;;;6309718;22;20087;-95
2023/06/10 09:15:29;;;;;;;43.63;7.20;;;;;;;;;;6310650;22;20041;-95
2023/06/10 09:18:14;;;;;;;17.58;4.65;;;;;;;;;;6310745;22;20022;-93
2023/06/10 09:21:01;;;;;;;7.88;3.28;;;;;;;;;;6309927;22;20161;-95
2023/06/10 09:23:46;;;;;;;12.45;3.95;;;;;;;;;;6310742;22;20025;-94
2023/06/10 09:26:36;;;;;;;8.73;3.60;;;;;;;;;;6311689;22;20018;-93
2023/06/10 09:29:24;;;;;;;8.45;3.97;;;;;;;;;;6301829;22;20026;-93
2023/06/10 09:32:18;;;;;;;5.65;2.97;;;;;;;;;;6288836;22;20014;-95
2023/06/10 09:35:17;;;;;;;5.50;3.30;;;;;;;;;;6275282;22;20142;-95
2023/06/10 09:38:12;;;;;;;7.90;3.50;;;;;;;;;;6293358;22;20118;-95
2023/06/10 09:40:57;;;;;;;5.93;3.17;;;;;;;;;;6286080;22;20073;-94
2023/06/10 09:43:43;;;;;;;6.20;3.50;;;;;;;;;;6301568;22;20057;-90
2023/06/10 09:46:33;;;;;;;7.13;3.13;;;;;;;;;;6255680;22;20095;-95
2023/06/10 09:49:18;;;;;;;9.52;3.35;;;;;;;;;;6300478;22;20015;-94
2023/06/10 09:52:08;;;;;;;4.60;2.70;;;;;;;;;;6277720;22;20014;-93
2023/06/10 09:54:56;;;;;;;6.75;3.15;;;;;;;;;;6278781;22;20061;-91
2023/06/10 09:57:47;;;;;;;15.05;3.40;;;;;;;;;;6298437;22;20027;-95
2023/06/10 10:00:35;;;;;;;6.63;2.85;;;;;;;;;;6298112;22;20011;-92
2023/06/10 10:03:23;;;;;;;7.25;3.00;;;;;;;;;;6277093;22;20350;-92
2023/06/10 10:06:08;;;;;;;5.60;3.13;;;;;;;;;;6276602;22;20023;-93
2023/06/10 10:09:03;;;;;;;6.95;2.95;;;;;;;;;;6298220;22;20045;-93
2023/06/10 10:11:49;;;;;;;6.35;2.85;;;;;;;;;;6281215;22;20439;-94
2023/06/10 10:14:35;;;;;;;7.00;3.40;;;;;;;;;;6300545;22;20014;-94
2023/06/10 10:17:23;;;;;;;7.03;2.85;;;;;;;;;;6300344;22;20038;-93
2023/06/10 10:20:13;;;;;;;3.85;2.67;;;;;;;;;;6298062;22;20019;-93
2023/06/10 10:22:58;;;;;;;8.10;2.83;;;;;;;;;;6298395;22;20471;-94
2023/06/10 10:25:43;;;;;;;4.75;2.75;;;;;;;;;;6279264;22;20061;-92
2023/06/10 10:28:35;;;;;;;9.60;2.80;;;;;;;;;;6295040;22;20041;-96
2023/06/10 10:31:19;;;;;;;4.82;2.78;;;;;;;;;;6278107;22;20073;-92
2023/06/10 10:34:07;;;;;;;5.47;2.60;;;;;;;;;;6275583;22;20464;-90
2023/06/10 10:36:51;;;;;;;6.90;3.33;;;;;;;;;;6274377;22;20011;-94
2023/06/10 10:39:37;;;;;;;4.75;2.63;;;;;;;;;;6282958;22;20065;-92
2023/06/10 10:42:22;;;;;;;6.82;3.10;;;;;;;;;;6291915;22;20006;-96
2023/06/10 10:45:08;;;;;;;8.77;3.22;;;;;;;;;;6283454;22;20015;-96
2023/06/10 10:47:56;;;;;;;5.25;2.90;;;;;;;;;;6260763;22;20440;-95
2023/06/10 10:50:41;;;;;;;5.03;2.78;;;;;;;;;;6287340;22;20027;-93
2023/06/10 10:53:31;;;;;;;7.72;2.92;;;;;;;;;;6291539;22;20028;-93
2023/06/10 10:56:26;;;;;;;9.32;3.22;;;;;;;;;;6272929;22;20078;-94
2023/06/10 10:59:21;;;;;;;7.45;2.80;;;;;;;;;;6292285;22;20078;-93
2023/06/10 11:02:08;;;;;;;7.03;2.67;;;;;;;;;;6285993;22;20221;-93
2023/06/10 11:04:55;;;;;;;4.55;2.40;;;;;;;;;;6284467;22;20044;-92
2023/06/10 11:07:55;;;;;;;5.57;2.67;;;;;;;;;;6278147;22;20029;-92
2023/06/10 11:10:58;;;;;;;6.70;2.78;;;;;;;;;;6278464;22;20337;-95
2023/06/10 11:13:58;;;;;;;7.60;2.57;;;;;;;;;;6285255;22;20037;-95
2023/06/10 11:16:45;;;;;;;5.82;2.85;;;;;;;;;;6290580;22;20349;-94
2023/06/10 11:19:37;;;;;;;8.45;2.88;;;;;;;;;;6269164;22;20023;-96
2023/06/10 11:22:22;;;;;;;5.95;2.80;;;;;;;;;;6283922;22;20116;-93
2023/06/10 11:25:31;;;;;;;6.28;2.80;;;;;;;;;;6283971;22;20030;-95
2023/06/10 11:28:19;;;;;;;6.00;2.42;;;;;;;;;;6282001;22;20121;-92
2023/06/10 11:31:10;;;;;;;6.97;2.55;;;;;;;;;;6298516;22;20432;-94
2023/06/10 11:33:58;;;;;;;8.27;3.42;;;;;;;;;;6313960;22;20037;-91
2023/06/10 11:36:51;;;;;;;5.13;2.70;;;;;;;;;;6308177;22;20052;-93
2023/06/10 11:42:44;;;;;;;3.97;2.20;;;;;;;;;;6307023;22;20110;-92
2023/06/10 11:45:29;;;;;;;3.50;2.20;;;;;;;;;;6306223;22;20072;-93
2023/06/10 11:48:21;;;;;;;7.20;2.40;;;;;;;;;;6306386;22;20447;-93
2023/06/10 11:51:11;;;;;;;8.68;2.50;;;;;;;;;;6306216;22;20060;-92
2023/06/10 11:53:58;;;;;;;6.35;2.40;;;;;;;;;;6307909;22;20083;-90
2023/06/10 11:56:54;;;;;;;6.63;2.42;;;;;;;;;;6306032;22;20527;-92
2023/06/10 12:00:03;;;;;;;5.93;2.10;;;;;;;;;;6284402;22;20049;-93
2023/06/10 12:02:58;;;;;;;4.93;2.15;;;;;;;;;;6305795;22;20064;-94
2023/06/10 12:05:56;;;;;;;5.40;2.38;;;;;;;;;;6305150;22;20054;-91
2023/06/10 12:08:46;;;;;;;6.80;3.35;;;;;;;;;;6305924;22;20336;-95
2023/06/10 12:11:31;;;;;;;6.40;2.25;;;;;;;;;;6309238;22;20060;-95
2023/06/10 12:14:38;;;;;;;6.03;2.55;;;;;;;;;;6308811;22;20056;-94
2023/06/10 12:17:24;;;;;;;5.63;2.67;;;;;;;;;;6306582;22;20014;-95
2023/06/10 12:20:28;;;;;;;7.13;2.63;;;;;;;;;;6305800;22;20098;-95
2023/06/10 12:23:18;;;;;;;10.98;3.67;;;;;;;;;;6307464;22;20014;-95
2023/06/10 12:26:03;;;;;;;5.32;2.63;;;;;;;;;;6306508;22;20013;-92
2023/06/10 12:28:51;;;;;;;4.75;2.40;;;;;;;;;;6282910;22;20022;-94
2023/06/10 12:31:52;;;;;;;6.63;2.50;;;;;;;;;;6304809;22;20014;-91
2023/06/10 12:34:38;;;;;;;4.07;2.00;;;;;;;;;;6325127;22;20010;-95
2023/06/10 12:37:23;;;;;;;5.82;2.45;;;;;;;;;;6312490;22;20010;-93
2023/06/10 12:40:11;;;;;;;6.93;2.75;;;;;;;;;;6305631;22;20022;-94
2023/06/10 12:42:56;;;;;;;4.53;2.30;;;;;;;;;;6306114;22;20050;-93
2023/06/10 12:45:44;;;;;;;6.53;2.50;;;;;;;;;;6306126;22;20018;-92
2023/06/10 12:48:29;;;;;;;5.05;2.72;;;;;;;;;;6305050;22;20050;-92
2023/06/10 12:51:13;;;;;;;5.45;2.50;;;;;;;;;;6304893;22;20015;-92
2023/06/10 12:53:58;;;;;;;5.35;2.30;;;;;;;;;;6306558;22;20014;-92
2023/06/10 12:56:51;;;;;;;5.13;2.70;;;;;;;;;;6309305;22;20333;-93
2023/06/10 12:59:36;;;;;;;6.93;2.72;;;;;;;;;;6306097;22;20019;-92
2023/06/10 13:02:23;;;;;;;5.07;2.58;;;;;;;;;;6307585;22;20333;-95
2023/06/10 13:05:08;;;;;;;6.00;2.83;;;;;;;;;;6285509;22;20030;-91
2023/06/10 13:08:02;;;;;;;5.55;2.65;;;;;;;;;;6309384;22;20054;-93
2023/06/10 13:10:49;;;;;;;31.70;7.75;;;;;;;;;;6317158;22;20015;-90
2023/06/10 13:13:37;;;;;;;6.80;2.50;;;;;;;;;;6314374;22;20026;-90
2023/06/10 13:16:27;;;;;;;6.35;3.30;;;;;;;;;;6310771;22;20390;-96
2023/06/10 13:19:12;;;;;;;7.20;3.08;;;;;;;;;;6290364;22;20468;-96
2023/06/10 13:21:57;;;;;;;6.65;2.92;;;;;;;;;;6289752;22;20018;-93
2023/06/10 13:24:43;;;;;;;11.27;3.20;;;;;;;;;;6311329;22;20042;-95
2023/06/10 13:27:38;;;;;;;8.60;2.95;;;;;;;;;;6309630;22;20440;-93
2023/06/10 13:30:29;;;;;;;6.00;2.72;;;;;;;;;;6311815;22;20026;-92
2023/06/10 13:33:14;;;;;;;8.02;3.08;;;;;;;;;;6320488;22;20026;-92
2023/06/10 13:35:59;;;;;;;6.60;2.90;;;;;;;;;;6330567;22;20063;-92
2023/06/10 13:38:49;;;;;;;16.33;3.70;;;;;;;;;;6332637;22;20017;-94
2023/06/10 13:41:41;;;;;;;9.27;3.15;;;;;;;;;;6330495;22;20022;-94
2023/06/10 13:44:33;;;;;;;9.15;3.00;;;;;;;;;;6330230;22;20011;-94
2023/06/10 13:47:20;;;;;;;5.60;2.90;;;;;;;;;;6330014;22;20086;-93
2023/06/10 13:50:05;;;;;;;7.28;3.35;;;;;;;;;;6330632;22;20037;-94
2023/06/10 13:52:53;;;;;;;4.68;2.20;;;;;;;;;;6304068;22;20022;-93
2023/06/10 13:55:43;;;;;;;9.82;2.20;;;;;;;;;;6289059;22;20509;-94
2023/06/10 13:58:40;;;;;;;5.40;3.05;;;;;;;;;;6305508;22;20025;-93
2023/06/10 14:01:41;;;;;;;;;;;;;;;;;;;;;
2023/06/10 14:04:26;;;;;;;8.10;3.15;;;;;;;;;;6309153;22;20013;-91
2023/06/10 14:07:11;;;;;;;8.10;2.95;;;;;;;;;;6305798;22;20015;-92
2023/06/10 14:10:06;;;;;;;;;;;;;;;;;;;;;
2023/06/10 14:12:54;;;;;;;7.28;2.83;;;;;;;;;;6308719;22;20378;-92
2023/06/10 14:15:50;;;;;;;5.72;2.50;;;;;;;;;;6286142;22;20540;-96
2023/06/10 14:22:06;;;;;;;8.52;2.67;;;;;;;;;;5142852;27;20415;-94
2023/06/10 14:24:53;;;;;;;5.63;2.63;;;;;;;;;;5116132;28;20076;-94
2023/06/10 14:27:38;;;;;;;5.85;1.85;;;;;;;;;;5094902;28;20116;-90
2023/06/10 14:30:23;;;;;;;5.57;2.58;;;;;;;;;;5093524;28;20046;-91
2023/06/10 14:33:07;;;;;;;6.63;2.55;;;;;;;;;;5110035;28;20080;-92
2023/06/10 14:35:55;;;;;;;6.97;2.20;;;;;;;;;;5080937;28;20057;-93
2023/06/10 14:38:58;;;;;;;7.57;2.92;;;;;;;;;;5097003;27;20619;-93
2023/06/10 14:42:10;;;;;;;6.10;2.35;;;;;;;;;;5109963;28;20051;-94
2023/06/10 14:45:04;;;;;;;5.50;2.33;;;;;;;;;;5100575;28;20482;-96
2023/06/10 14:47:48;;;;;;;13.02;3.53;;;;;;;;;;5477960;22;20068;-91
2023/06/10 14:50:40;;;;;;;9.65;2.60;;;;;;;;;;5018832;28;20121;-95
2023/06/10 14:53:25;;;;;;;5.22;2.45;;;;;;;;;;5024838;28;20040;-91
2023/06/10 14:56:09;;;;;;;7.65;2.15;;;;;;;;;;5014438;28;20128;-93
2023/06/10 14:58:54;;;;;;;5.28;2.60;;;;;;;;;;5016021;28;20040;-93
2023/06/10 15:01:39;;;;;;;5.22;2.40;;;;;;;;;;5012831;28;20504;-93
2023/06/10 15:04:27;;;;;;;5.05;2.47;;;;;;;;;;5028733;28;20088;-89
2023/06/10 15:07:15;;;;;;;7.10;2.88;;;;;;;;;;5028625;28;20040;-90
2023/06/10 15:10:00;;;;;;;8.93;3.40;;;;;;;;;;5000622;28;20156;-92
2023/06/10 15:12:47;;;;;;;5.55;2.20;;;;;;;;;;5028016;28;20048;-94
2023/06/10 15:15:33;;;;;;;8.77;3.17;;;;;;;;;;5012959;28;20547;-89
2023/06/10 15:18:18;;;;;;;6.30;2.80;;;;;;;;;;5028767;28;20045;-94
2023/06/10 15:21:03;;;;;;;3.92;2.20;;;;;;;;;;5000015;28;20076;-92
2023/06/10 15:23:56;;;;;;;8.23;2.47;;;;;;;;;;5001050;28;20099;-93
2023/06/10 15:26:42;;;;;;;7.43;2.72;;;;;;;;;;5021848;28;20561;-93
2023/06/10 15:29:27;;;;;;;7.15;2.17;;;;;;;;;;5020385;28;20569;-92
2023/06/10 15:32:12;;;;;;;9.25;2.63;;;;;;;;;;5019082;28;20037;-94
2023/06/10 15:34:56;;;;;;;4.55;2.20;;;;;;;;;;4984146;28;20054;-94
2023/06/10 15:37:41;;;;;;;4.18;2.40;;;;;;;;;;4997529;28;20037;-93
2023/06/10 15:40:26;;;;;;;4.63;2.45;;;;;;;;;;5001579;28;20080;-91
2023/06/10 15:43:18;;;;;;;5.65;2.30;;;;;;;;;;4996589;28;20488;-93
2023/06/10 15:46:03;;;;;;;7.03;2.65;;;;;;;;;;5007992;28;20025;-93
2023/06/10 15:48:50;;;;;;;5.32;2.45;;;;;;;;;;4988187;28;20244;-94
2023/06/10 15:54:48;;;;;;;6.70;2.35;;;;;;;;;;5016426;28;20105;-94
2023/06/10 15:57:33;;;;;;;5.63;2.40;;;;;;;;;;5002514;28;20037;-94
2023/06/10 16:00:21;;;;;;;7.53;2.47;;;;;;;;;;5023757;28;20104;-93
2023/06/10 16:03:11;;;;;;;7.10;2.95;;;;;;;;;;5022810;28;20037;-94
2023/06/10 16:05:56;;;;;;;4.93;2.13;;;;;;;;;;5018359;28;20186;-93
2023/06/10 16:08:41;;;;;;;5.55;2.83;;;;;;;;;;5015341;28;20045;-93
2023/06/10 16:11:26;;;;;;;5.82;2.20;;;;;;;;;;5009115;28;20049;-93
2023/06/10 16:14:13;;;;;;;5.90;2.50;;;;;;;;;;5014259;28;20029;-91
2023/06/10 16:16:58;;;;;;;4.50;2.17;;;;;;;;;;4999474;28;20100;-92
2023/06/10 16:19:45;;;;;;;5.47;2.42;;;;;;;;;;5001033;28;20052;-93
2023/06/10 16:22:30;;;;;;;4.75;2.00;;;;;;;;;;4999498;28;20045;-94
2023/06/10 16:25:18;;;;;;;8.00;2.10;;;;;;;;;;4999363;28;20137;-94
2023/06/10 16:28:03;;;;;;;6.88;2.40;;;;;;;;;;4999574;28;20037;-93
2023/06/10 16:30:52;;;;;;;5.50;2.30;;;;;;;;;;4998740;28;20087;-93
2023/06/10 16:33:39;;;;;;;6.20;2.47;;;;;;;;;;5010684;28;20072;-93
2023/06/10 16:36:40;;;;;;;;;;;;;;;;;;;;;
2023/06/10 16:39:28;;;;;;;5.15;2.47;;;;;;;;;;5024817;28;20041;-94
2023/06/10 16:42:13;;;;;;;8.90;5.30;;;;;;;;;;4997503;28;20034;-93
2023/06/10 16:44:57;;;;;;;8.02;3.90;;;;;;;;;;4994405;28;20186;-94
2023/06/10 16:47:45;;;;;;;7.18;3.50;;;;;;;;;;4981893;28;20049;-93
2023/06/10 16:50:29;;;;;;;9.75;3.03;;;;;;;;;;5001079;28;20477;-93
2023/06/10 16:53:17;;;;;;;14.90;2.92;;;;;;;;;;5017069;28;20078;-92
2023/06/10 16:56:02;;;;;;;10.05;2.85;;;;;;;;;;4995851;28;20065;-90
2023/06/10 16:58:54;;;;;;;6.20;2.17;;;;;;;;;;4991113;28;20508;-91
2023/06/10 17:01:42;;;;;;;5.85;2.30;;;;;;;;;;4984319;28;20069;-91
2023/06/10 17:04:26;;;;;;;13.05;7.68;;;;;;;;;;5017900;28;20115;-95
2023/06/10 17:07:11;;;;;;;11.95;6.68;;;;;;;;;;5012760;28;20094;-95
2023/06/10 17:13:31;;;;;;;8.10;4.68;;;;;;;;;;5014534;28;20049;-94
2023/06/10 17:16:18;;;;;;;7.30;3.15;;;;;;;;;;4999156;28;20099;-94
2023/06/10 17:19:05;;;;;;;5.30;2.30;;;;;;;;;;4998833;28;20045;-90
2023/06/10 17:21:57;;;;;;;3.78;2.10;;;;;;;;;;4981493;28;20104;-91
2023/06/10 17:24:42;;;;;;;5.72;2.28;;;;;;;;;;5009790;28;20107;-92
2023/06/10 17:27:27;;;;;;;9.45;2.78;;;;;;;;;;4990366;28;20037;-90
2023/06/10 17:30:11;;;;;;;4.95;2.40;;;;;;;;;;4997617;28;20100;-92
2023/06/10 17:32:56;;;;;;;6.85;2.85;;;;;;;;;;4988226;28;20096;-90
2023/06/10 17:35:41;;;;;;;4.43;2.15;;;;;;;;;;5007153;28;20062;-91